Terminal Aerodrome Forecast
Issued by NWS

Home | Current Version | Previous Version | Text Only | Print | Product List | Glossary Off
Versions: 1 2 3 4 5 6 7 8 9 10 11 12 13 14 15 16 17

000
FTUS45 KGGW 021700
TAFSDY
TAF
KSDY 021723Z 0218/0318 18008KT 6SM -SHRA BKN015 OVC030
      TEMPO 0218/0221 4SM -RA
     FM030100 01013KT P6SM VCSH BKN023 BKN030
      AMD LTD TO CLD VIS AND WIND=

USA.gov is the U.S. government's official web portal to all federal, state and local government web resources and services.